createdAt,value
2022-08-16T00:00:03.575Z,314.10
2022-08-16T00:00:54.536Z,320.20
2022-08-16T00:01:53.502Z,328.20
2022-08-16T00:02:53.466Z,320.50
2022-08-16T00:03:53.457Z,308.90
2022-08-16T00:04:53.540Z,300.30
2022-08-16T00:05:57.609Z,316.50
2022-08-16T00:06:53.419Z,315.30
2022-08-16T00:07:56.283Z,322.20
2022-08-16T00:08:53.388Z,320.90
2022-08-16T00:09:53.378Z,323.80
2022-08-16T00:10:53.546Z,321.90
2022-08-16T00:11:55.419Z,321.00
2022-08-16T00:12:53.349Z,326.60
2022-08-16T00:13:55.627Z,318.50
2022-08-16T00:14:56.847Z,321.50
2022-08-16T00:15:54.178Z,323.20
2022-08-16T00:17:01.537Z,330.40
2022-08-16T00:17:56.873Z,331.50
2022-08-16T00:18:53.259Z,326.00
2022-08-16T00:19:53.418Z,322.00
2022-08-16T00:20:53.239Z,333.00
2022-08-16T00:21:57.091Z,347.30
2022-08-16T00:22:54.200Z,340.30
2022-08-16T00:23:53.201Z,335.00
2022-08-16T00:24:53.178Z,328.40
2022-08-16T00:26:35.816Z,342.10
2022-08-16T00:26:54.531Z,338.30
2022-08-16T00:27:53.185Z,335.10
2022-08-16T00:28:54.523Z,347.90
2022-08-16T00:30:08.278Z,340.20
2022-08-16T00:30:54.101Z,354.70
2022-08-16T00:32:00.497Z,351.40
2022-08-16T00:32:57.024Z,353.70
2022-08-16T00:33:53.061Z,351.30
2022-08-16T00:34:54.355Z,348.40
2022-08-16T00:35:53.053Z,355.00
2022-08-16T00:36:55.908Z,362.30
2022-08-16T00:37:57.806Z,343.20
2022-08-16T00:38:53.995Z,342.90
2022-08-16T00:39:57.661Z,343.70
2022-08-16T00:40:54.132Z,345.70
2022-08-16T00:41:52.974Z,350.50
2022-08-16T00:42:54.879Z,364.00
2022-08-16T00:43:52.936Z,341.80
2022-08-16T00:44:52.926Z,354.50
2022-08-16T00:45:58.081Z,349.70
2022-08-16T00:47:02.438Z,356.50
2022-08-16T00:47:53.954Z,339.90
2022-08-16T00:48:52.874Z,332.70
2022-08-16T00:49:56.753Z,344.80
2022-08-16T00:50:55.542Z,340.40
2022-08-16T00:51:54.831Z,337.90
2022-08-16T00:52:53.521Z,325.60
2022-08-16T00:53:52.818Z,340.70
2022-08-16T00:54:52.803Z,348.60
2022-08-16T00:55:52.786Z,359.00
2022-08-16T00:56:58.573Z,353.80
2022-08-16T00:57:59.854Z,350.30
2022-08-16T00:58:53.880Z,358.30
2022-08-16T00:59:58.798Z,354.40
2022-08-16T01:00:54.362Z,360.80
2022-08-16T01:01:52.706Z,360.30
2022-08-16T01:02:52.698Z,360.20
2022-08-16T01:03:52.677Z,360.20
2022-08-16T01:05:11.191Z,363.70
2022-08-16T01:05:53.660Z,379.10
2022-08-16T01:07:01.152Z,375.50
2022-08-16T01:07:53.764Z,378.60
2022-08-16T01:08:52.608Z,374.80
2022-08-16T01:09:52.781Z,367.80
2022-08-16T01:10:52.577Z,365.80
2022-08-16T01:11:54.177Z,375.90
2022-08-16T01:12:52.561Z,372.30
2022-08-16T01:13:53.067Z,368.00
2022-08-16T01:14:53.346Z,371.60
2022-08-16T01:15:53.603Z,380.10
2022-08-16T01:16:52.509Z,381.30
2022-08-16T01:17:56.061Z,391.80
2022-08-16T01:18:52.479Z,392.40
2022-08-16T01:19:52.480Z,387.70
2022-08-16T01:20:52.938Z,374.10
2022-08-16T01:21:52.441Z,371.20
2022-08-16T01:22:52.732Z,378.60
2022-08-16T01:23:58.664Z,377.60
2022-08-16T01:24:55.681Z,374.70
2022-08-16T01:26:00.158Z,372.90
2022-08-16T01:26:53.371Z,375.40
2022-08-16T01:27:52.391Z,378.20
2022-08-16T01:28:52.354Z,383.20
2022-08-16T01:29:57.988Z,384.10
2022-08-16T01:30:53.330Z,386.60
2022-08-16T01:31:52.337Z,383.60
2022-08-16T01:32:56.413Z,395.10
2022-08-16T01:33:53.301Z,399.90
2022-08-16T01:34:53.675Z,411.40
2022-08-16T01:35:53.322Z,420.20
2022-08-16T01:36:58.311Z,415.20
2022-08-16T01:37:54.200Z,415.50
2022-08-16T01:38:57.251Z,413.50
2022-08-16T01:39:53.279Z,402.10
2022-08-16T01:40:52.191Z,373.30
2022-08-16T01:41:52.263Z,373.40
2022-08-16T01:42:52.180Z,369.80
2022-08-16T01:43:54.108Z,380.60
2022-08-16T01:44:52.243Z,371.40
2022-08-16T01:45:57.614Z,374.20
2022-08-16T01:46:53.111Z,380.40
2022-08-16T01:47:52.236Z,396.90
2022-08-16T01:48:52.090Z,382.80
2022-08-16T01:50:40.890Z,389.70
2022-08-16T01:51:08.759Z,391.50
2022-08-16T01:51:53.124Z,390.20
2022-08-16T01:52:52.047Z,397.80
2022-08-16T01:53:55.473Z,411.60
2022-08-16T01:54:52.013Z,425.80
2022-08-16T01:55:54.149Z,435.30
2022-08-16T01:56:51.996Z,433.50
2022-08-16T01:57:53.755Z,423.60
2022-08-16T01:58:51.975Z,419.40
2022-08-16T01:59:54.626Z,427.30
2022-08-16T02:00:51.931Z,419.70
2022-08-16T02:01:54.468Z,423.20
2022-08-16T02:02:53.896Z,405.40
2022-08-16T02:03:52.014Z,411.30
2022-08-16T02:04:54.838Z,396.30
2022-08-16T02:05:52.233Z,392.00
2022-08-16T02:06:51.854Z,404.50
2022-08-16T02:07:53.501Z,403.00
2022-08-16T02:08:51.826Z,401.20
2022-08-16T02:09:58.739Z,397.30
2022-08-16T02:10:52.807Z,400.90
2022-08-16T02:11:53.132Z,390.80
2022-08-16T02:12:56.165Z,394.90
2022-08-16T02:13:54.736Z,389.10
2022-08-16T02:14:51.757Z,387.30
2022-08-16T02:15:51.735Z,384.80
2022-08-16T02:16:51.726Z,370.90
2022-08-16T02:17:52.587Z,365.60
2022-08-16T02:18:51.707Z,379.40
2022-08-16T02:19:58.549Z,377.70
2022-08-16T02:20:53.551Z,378.30
2022-08-16T02:22:09.034Z,379.50
2022-08-16T02:22:52.646Z,388.90
2022-08-16T02:23:55.685Z,382.50
2022-08-16T02:24:51.881Z,373.10
2022-08-16T02:25:53.766Z,377.90
2022-08-16T02:26:51.598Z,375.20
2022-08-16T02:27:51.791Z,379.90
2022-08-16T02:28:51.585Z,372.80
2022-08-16T02:29:51.559Z,380.10
2022-08-16T02:30:55.933Z,371.30
2022-08-16T02:32:03.658Z,366.10
2022-08-16T02:32:52.530Z,385.30
2022-08-16T02:33:51.507Z,393.30
2022-08-16T02:34:51.490Z,399.70
2022-08-16T02:35:55.474Z,397.10
2022-08-16T02:36:52.460Z,398.20
2022-08-16T02:37:52.999Z,392.30
2022-08-16T02:38:51.444Z,394.00
2022-08-16T02:39:53.905Z,403.30
2022-08-16T02:40:51.409Z,395.50
2022-08-16T02:41:53.356Z,400.90
2022-08-16T02:42:51.472Z,389.50
2022-08-16T02:43:51.381Z,375.30
2022-08-16T02:44:51.370Z,367.80
2022-08-16T02:45:51.350Z,370.20
2022-08-16T02:46:53.934Z,367.00
2022-08-16T02:48:01.298Z,368.30
2022-08-16T02:48:52.301Z,379.30
2022-08-16T02:50:01.421Z,397.50
2022-08-16T02:51:05.807Z,398.90
2022-08-16T02:51:52.272Z,398.50
2022-08-16T02:52:51.260Z,386.30
2022-08-16T02:53:51.253Z,399.30
2022-08-16T02:54:55.144Z,378.80
2022-08-16T02:55:51.246Z,379.80
2022-08-16T02:56:51.204Z,383.50
2022-08-16T02:57:54.315Z,370.40
2022-08-16T02:58:51.172Z,387.80
2022-08-16T02:59:51.175Z,380.00
2022-08-16T03:00:51.188Z,386.50
2022-08-16T03:01:51.173Z,377.10
2022-08-16T03:02:55.941Z,381.30
2022-08-16T03:04:41.084Z,380.60
2022-08-16T03:04:52.755Z,377.30
2022-08-16T03:05:52.390Z,376.80
2022-08-16T03:06:51.083Z,378.40
2022-08-16T03:07:52.072Z,379.20
2022-08-16T03:08:53.153Z,378.40
2022-08-16T03:09:51.056Z,388.90
2022-08-16T03:10:51.024Z,377.50
2022-08-16T03:11:51.027Z,378.70
2022-08-16T03:12:55.139Z,366.40
2022-08-16T03:13:53.033Z,374.90
2022-08-16T03:14:50.964Z,379.20
2022-08-16T03:15:50.954Z,369.30
2022-08-16T03:16:59.392Z,382.30
2022-08-16T03:17:53.944Z,379.40
2022-08-16T03:18:50.994Z,378.10
2022-08-16T03:20:00.161Z,385.30
2022-08-16T03:20:55.471Z,385.50
2022-08-16T03:21:51.798Z,384.20
2022-08-16T03:22:50.872Z,392.50
2022-08-16T03:23:50.855Z,375.50
2022-08-16T03:24:50.845Z,394.60
2022-08-16T03:25:50.835Z,379.40
2022-08-16T03:26:50.824Z,376.50
2022-08-16T03:27:50.806Z,373.30
2022-08-16T03:28:50.795Z,373.70
2022-08-16T03:29:54.138Z,381.60
2022-08-16T03:30:50.764Z,371.20
2022-08-16T03:31:52.436Z,379.90
2022-08-16T03:32:51.638Z,365.90
2022-08-16T03:33:52.206Z,372.80
2022-08-16T03:34:50.715Z,375.20
2022-08-16T03:35:50.730Z,375.20
2022-08-16T03:36:51.686Z,376.20
2022-08-16T03:38:02.843Z,372.20
2022-08-16T03:38:51.656Z,375.10
2022-08-16T03:39:56.206Z,374.50
2022-08-16T03:40:51.707Z,371.00
2022-08-16T03:41:59.219Z,371.20
2022-08-16T03:43:19.012Z,372.20
2022-08-16T03:43:52.478Z,384.10
2022-08-16T03:44:50.588Z,371.70
2022-08-16T03:45:52.435Z,383.50
2022-08-16T03:46:50.572Z,370.80
2022-08-16T03:47:50.548Z,384.40
2022-08-16T03:48:51.539Z,377.20
2022-08-16T03:49:51.936Z,373.50
2022-08-16T03:50:59.780Z,377.90
2022-08-16T03:51:52.045Z,372.50
2022-08-16T03:52:50.494Z,383.10
2022-08-16T03:54:00.811Z,383.20
2022-08-16T03:54:57.396Z,375.10
2022-08-16T03:55:51.448Z,385.50
2022-08-16T03:56:57.293Z,384.40
2022-08-16T03:57:52.258Z,381.10
2022-08-16T03:58:50.906Z,387.70
2022-08-16T03:59:51.103Z,380.90
2022-08-16T04:00:56.765Z,374.30
2022-08-16T04:01:53.750Z,401.30
2022-08-16T04:02:50.457Z,377.20
2022-08-16T04:03:50.341Z,379.50
2022-08-16T04:04:50.334Z,382.00
2022-08-16T04:05:50.318Z,382.90
2022-08-16T04:06:50.305Z,396.90
2022-08-16T04:07:50.706Z,386.80
2022-08-16T04:08:50.271Z,374.70
2022-08-16T04:09:50.261Z,370.40
2022-08-16T04:10:51.762Z,381.00
2022-08-16T04:11:50.252Z,382.00
2022-08-16T04:12:53.274Z,377.00
2022-08-16T04:14:01.310Z,375.40
2022-08-16T04:14:51.252Z,377.00
2022-08-16T04:15:50.184Z,374.90
2022-08-16T04:16:50.183Z,365.40
2022-08-16T04:17:50.165Z,377.80
2022-08-16T04:18:50.158Z,375.10
2022-08-16T04:19:52.355Z,381.30
2022-08-16T04:20:50.126Z,379.70
2022-08-16T04:21:50.112Z,383.40
2022-08-16T04:22:50.103Z,371.10
2022-08-16T04:23:50.083Z,373.90
2022-08-16T04:24:54.848Z,371.70
2022-08-16T04:25:51.064Z,377.10
2022-08-16T04:26:50.044Z,378.90
2022-08-16T04:27:56.070Z,369.40
2022-08-16T04:28:54.562Z,372.60
2022-08-16T04:29:52.454Z,368.40
2022-08-16T04:30:50.551Z,374.40
2022-08-16T04:31:56.576Z,370.20
2022-08-16T04:32:51.086Z,372.10
2022-08-16T04:33:50.494Z,366.10
2022-08-16T04:34:49.956Z,373.00
2022-08-16T04:35:50.006Z,376.70
2022-08-16T04:36:49.927Z,367.30
2022-08-16T04:37:53.642Z,376.70
2022-08-16T04:38:50.220Z,370.50
2022-08-16T04:39:55.576Z,371.80
2022-08-16T04:40:50.929Z,370.60
2022-08-16T04:41:49.864Z,374.60
2022-08-16T04:42:51.068Z,380.20
2022-08-16T04:43:49.827Z,370.20
2022-08-16T04:44:53.865Z,375.60
2022-08-16T04:46:00.030Z,369.80
2022-08-16T04:47:01.361Z,365.20
2022-08-16T04:47:56.305Z,372.70
2022-08-16T04:48:50.766Z,384.50
2022-08-16T04:49:49.751Z,378.30
2022-08-16T04:50:49.737Z,380.00
2022-08-16T04:51:53.622Z,381.20
2022-08-16T04:52:50.716Z,386.90
2022-08-16T04:53:49.699Z,380.60
2022-08-16T04:54:49.699Z,379.10
2022-08-16T04:55:53.112Z,394.60
2022-08-16T04:56:49.949Z,386.60
2022-08-16T04:57:53.725Z,389.40
2022-08-16T04:58:49.637Z,388.90
2022-08-16T04:59:49.627Z,398.50
2022-08-16T05:00:49.609Z,388.50
2022-08-16T05:01:58.162Z,395.80
2022-08-16T05:02:54.925Z,390.90
2022-08-16T05:04:00.962Z,389.80
2022-08-16T05:04:50.549Z,402.10
2022-08-16T05:05:59.481Z,411.60
2022-08-16T05:06:50.600Z,410.20
2022-08-16T05:07:58.537Z,410.20
2022-08-16T05:08:50.510Z,402.70
2022-08-16T05:09:50.489Z,410.80
2022-08-16T05:10:49.479Z,416.40
2022-08-16T05:11:49.480Z,418.00
2022-08-16T05:12:49.596Z,415.60
2022-08-16T05:13:49.437Z,417.00
2022-08-16T05:15:02.474Z,416.10
2022-08-16T05:15:50.409Z,418.20
2022-08-16T05:16:52.147Z,417.60
2022-08-16T05:17:58.381Z,417.40
2022-08-16T05:18:50.371Z,419.80
2022-08-16T05:19:57.546Z,416.30
2022-08-16T05:21:01.808Z,415.70
2022-08-16T05:21:50.334Z,411.80
2022-08-16T05:22:49.480Z,414.90
2022-08-16T05:23:51.777Z,433.30
2022-08-16T05:24:50.301Z,430.10
2022-08-16T05:25:50.282Z,428.80
2022-08-16T05:26:51.325Z,422.00
2022-08-16T05:27:49.443Z,426.60
2022-08-16T05:28:55.478Z,417.60
2022-08-16T05:29:59.284Z,419.00
2022-08-16T05:30:50.577Z,422.40
2022-08-16T05:31:52.980Z,426.40
2022-08-16T05:32:49.357Z,433.70
2022-08-16T05:33:53.238Z,428.30
2022-08-16T05:34:50.173Z,428.50
2022-08-16T05:35:55.002Z,427.10
2022-08-16T05:36:51.158Z,422.80
2022-08-16T05:37:49.134Z,419.00
2022-08-16T05:38:49.125Z,423.40
2022-08-16T05:39:49.183Z,425.20
2022-08-16T05:40:59.536Z,430.60
2022-08-16T05:41:51.811Z,433.00
2022-08-16T05:42:49.530Z,426.40
2022-08-16T05:43:49.056Z,424.50
2022-08-16T05:44:49.321Z,428.10
2022-08-16T05:45:50.886Z,420.90
2022-08-16T05:46:49.021Z,420.20
2022-08-16T05:47:48.994Z,425.50
2022-08-16T05:48:55.208Z,421.50
2022-08-16T05:49:50.621Z,418.00
2022-08-16T05:50:52.957Z,414.80
2022-08-16T05:51:48.945Z,419.70
2022-08-16T05:52:49.037Z,410.30
2022-08-16T05:53:49.454Z,405.30
2022-08-16T05:54:58.547Z,397.30
2022-08-16T05:55:49.908Z,409.10
2022-08-16T05:56:49.988Z,406.20
2022-08-16T05:57:52.548Z,396.10
2022-08-16T05:58:48.855Z,398.20
2022-08-16T05:59:50.610Z,395.30
2022-08-16T06:00:49.964Z,398.20
2022-08-16T06:01:48.840Z,388.10
2022-08-16T06:02:48.950Z,389.60
2022-08-16T06:03:48.794Z,390.10
2022-08-16T06:04:48.787Z,390.70
2022-08-16T06:05:48.767Z,386.20
2022-08-16T06:06:56.795Z,380.40
2022-08-16T06:07:58.259Z,374.20
2022-08-16T06:08:49.731Z,371.10
2022-08-16T06:09:48.716Z,372.20
2022-08-16T06:11:05.696Z,357.80
2022-08-16T06:11:49.812Z,371.40
2022-08-16T06:12:52.662Z,365.90
2022-08-16T06:13:49.667Z,346.10
2022-08-16T06:14:48.649Z,346.50
2022-08-16T06:15:48.629Z,348.50
2022-08-16T06:16:50.791Z,357.00
2022-08-16T06:17:51.755Z,348.00
2022-08-16T06:18:48.598Z,334.30
2022-08-16T06:19:48.579Z,328.30
2022-08-16T06:20:55.472Z,328.30
2022-08-16T06:21:54.829Z,327.20
2022-08-16T06:23:03.003Z,340.50
2022-08-16T06:23:49.523Z,343.50
2022-08-16T06:24:55.195Z,342.80
2022-08-16T06:25:53.051Z,375.20
2022-08-16T06:26:57.564Z,368.40
2022-08-16T06:27:57.459Z,368.30
2022-08-16T06:28:49.553Z,379.10
2022-08-16T06:29:50.188Z,389.80
2022-08-16T06:30:48.447Z,394.30
2022-08-16T06:31:50.551Z,394.00
2022-08-16T06:32:48.790Z,391.80
2022-08-16T06:33:48.433Z,398.50
2022-08-16T06:34:55.297Z,403.10
2022-08-16T06:35:49.374Z,401.40
2022-08-16T06:36:48.627Z,394.30
2022-08-16T06:37:51.167Z,425.10
2022-08-16T06:38:56.127Z,405.10
2022-08-16T06:39:50.465Z,399.50
2022-08-16T06:40:49.317Z,402.60
2022-08-16T06:41:48.293Z,403.00
2022-08-16T06:42:48.490Z,408.20
2022-08-16T06:43:48.275Z,398.30
2022-08-16T06:44:48.415Z,399.70
2022-08-16T06:45:48.261Z,399.00
2022-08-16T06:46:50.506Z,393.60
2022-08-16T06:47:53.810Z,390.50
2022-08-16T06:48:51.585Z,393.30
2022-08-16T06:49:52.914Z,389.60
2022-08-16T06:50:49.188Z,395.90
2022-08-16T06:51:48.913Z,395.40
2022-08-16T06:52:59.865Z,381.30
2022-08-16T06:53:49.144Z,385.20
2022-08-16T06:54:49.946Z,385.10
2022-08-16T06:55:48.204Z,391.00
2022-08-16T06:56:52.572Z,397.30
2022-08-16T06:57:49.094Z,381.90
2022-08-16T06:58:48.087Z,381.70
2022-08-16T06:59:52.353Z,373.30
2022-08-16T07:00:49.117Z,368.80
2022-08-16T07:01:53.414Z,366.00
2022-08-16T07:02:51.775Z,357.00
2022-08-16T07:03:55.067Z,355.80
2022-08-16T07:04:48.999Z,361.20
2022-08-16T07:05:47.978Z,350.80
2022-08-16T07:06:48.128Z,356.80
2022-08-16T07:07:47.969Z,343.70
2022-08-16T07:08:47.960Z,344.80
2022-08-16T07:09:47.928Z,341.00
2022-08-16T07:10:48.032Z,341.00
2022-08-16T07:11:52.281Z,345.20
2022-08-16T07:13:04.188Z,333.70
2022-08-16T07:14:03.624Z,338.50
2022-08-16T07:14:48.871Z,323.90
2022-08-16T07:15:50.134Z,334.80
2022-08-16T07:16:47.839Z,336.30
2022-08-16T07:17:48.139Z,315.00
2022-08-16T07:19:01.369Z,306.70
2022-08-16T07:20:03.451Z,293.60
2022-08-16T07:20:48.884Z,298.60
2022-08-16T07:21:59.367Z,295.20
2022-08-16T07:22:52.495Z,284.10
2022-08-16T07:23:48.751Z,284.60
2022-08-16T07:24:48.750Z,264.20
2022-08-16T07:25:47.733Z,278.50
2022-08-16T07:26:48.488Z,286.70
2022-08-16T07:27:47.691Z,265.40
2022-08-16T07:28:47.772Z,286.20
2022-08-16T07:29:47.673Z,281.30
2022-08-16T07:30:47.713Z,274.70
2022-08-16T07:31:47.642Z,257.80
2022-08-16T07:32:51.366Z,248.50
2022-08-16T07:33:51.916Z,246.20
2022-08-16T07:34:49.076Z,248.30
2022-08-16T07:35:49.718Z,248.00
2022-08-16T07:36:57.872Z,250.30
2022-08-16T07:37:48.563Z,251.90
2022-08-16T07:38:47.568Z,238.00
2022-08-16T07:39:47.883Z,248.40
2022-08-16T07:40:59.478Z,245.50
2022-08-16T07:41:48.514Z,250.80
2022-08-16T07:42:47.757Z,242.10
2022-08-16T07:43:47.720Z,250.10
2022-08-16T07:44:50.652Z,254.60
2022-08-16T07:45:52.908Z,241.50
2022-08-16T07:46:48.460Z,255.00
2022-08-16T07:47:51.195Z,245.20
2022-08-16T07:48:47.616Z,242.00
2022-08-16T07:49:53.136Z,237.30
2022-08-16T07:50:55.607Z,235.00
2022-08-16T07:51:48.400Z,230.70
2022-08-16T07:52:47.376Z,233.80
2022-08-16T07:53:47.376Z,226.90
2022-08-16T07:54:49.087Z,214.20
2022-08-16T07:55:48.487Z,227.80
2022-08-16T07:56:47.327Z,230.40
2022-08-16T07:57:59.965Z,219.30
2022-08-16T07:58:48.311Z,210.50
2022-08-16T07:59:48.287Z,189.30
2022-08-16T08:00:47.321Z,198.50
2022-08-16T08:01:47.613Z,202.50
2022-08-16T08:02:48.327Z,199.70
2022-08-16T08:03:49.005Z,197.60
2022-08-16T08:04:47.231Z,193.50
2022-08-16T08:05:47.208Z,202.90
2022-08-16T08:06:47.211Z,199.50
2022-08-16T08:07:47.180Z,196.70
2022-08-16T08:08:51.412Z,196.40
2022-08-16T08:09:48.162Z,190.30
2022-08-16T08:10:47.151Z,188.30
2022-08-16T08:11:59.804Z,188.30
2022-08-16T08:12:48.530Z,184.30
2022-08-16T08:13:47.121Z,192.70
2022-08-16T08:14:47.107Z,188.70
2022-08-16T08:15:52.915Z,179.70
2022-08-16T08:16:48.083Z,178.60
2022-08-16T08:17:47.060Z,175.90
2022-08-16T08:18:50.374Z,170.80
2022-08-16T08:19:53.201Z,186.70
2022-08-16T08:20:59.239Z,182.90
2022-08-16T08:22:01.305Z,181.30
2022-08-16T08:22:48.063Z,182.90
2022-08-16T08:23:47.054Z,176.50
2022-08-16T08:24:46.983Z,185.00
2022-08-16T08:25:54.121Z,183.70
2022-08-16T08:26:50.033Z,194.30
2022-08-16T08:27:46.933Z,188.80
2022-08-16T08:28:46.925Z,192.50
2022-08-16T08:29:46.915Z,194.50
2022-08-16T08:30:51.594Z,186.10
2022-08-16T08:31:47.887Z,190.90
2022-08-16T08:32:59.837Z,190.80
2022-08-16T08:33:51.713Z,191.10
2022-08-16T08:34:46.865Z,187.80
2022-08-16T08:35:46.845Z,185.80
2022-08-16T08:36:46.820Z,178.90
2022-08-16T08:37:55.280Z,179.20
2022-08-16T08:38:47.786Z,181.80
2022-08-16T08:39:54.966Z,185.90
2022-08-16T08:40:47.768Z,185.50
2022-08-16T08:41:49.614Z,186.60
2022-08-16T08:42:48.082Z,186.50
2022-08-16T08:43:46.728Z,203.60
2022-08-16T08:44:46.828Z,188.90
2022-08-16T08:45:49.349Z,187.30
2022-08-16T08:47:00.479Z,192.90
2022-08-16T08:47:54.104Z,191.20
2022-08-16T08:48:59.454Z,185.90
2022-08-16T08:49:55.378Z,195.60
2022-08-16T08:50:50.014Z,186.40
2022-08-16T08:51:46.640Z,187.30
2022-08-16T08:52:47.860Z,189.30
2022-08-16T08:53:46.609Z,199.30
2022-08-16T08:54:47.659Z,189.60
2022-08-16T08:55:46.579Z,199.40
2022-08-16T08:56:47.559Z,194.80
2022-08-16T08:57:46.564Z,192.60
2022-08-16T08:58:54.835Z,186.50
2022-08-16T08:59:47.528Z,194.50
2022-08-16T09:00:50.212Z,191.30
2022-08-16T09:01:57.263Z,197.90
2022-08-16T09:02:51.802Z,206.70
2022-08-16T09:03:46.594Z,194.60
2022-08-16T09:04:47.729Z,214.30
2022-08-16T09:05:51.401Z,197.70
2022-08-16T09:06:46.446Z,204.00
2022-08-16T09:08:00.823Z,207.70
2022-08-16T09:08:47.619Z,207.20
2022-08-16T09:09:46.403Z,206.10
2022-08-16T09:10:46.381Z,206.70
2022-08-16T09:11:53.408Z,200.00
2022-08-16T09:12:47.645Z,212.40
2022-08-16T09:13:47.359Z,204.10
2022-08-16T09:14:49.675Z,217.80
2022-08-16T09:15:47.335Z,222.00
2022-08-16T09:17:01.242Z,222.70
2022-08-16T09:17:51.984Z,221.20
2022-08-16T09:18:50.635Z,208.60
2022-08-16T09:19:49.324Z,212.40
2022-08-16T09:20:58.465Z,214.40
2022-08-16T09:21:47.258Z,218.80
2022-08-16T09:22:52.383Z,243.60
2022-08-16T09:23:47.227Z,219.70
2022-08-16T09:24:52.064Z,217.50
2022-08-16T09:25:47.200Z,223.70
2022-08-16T09:26:46.807Z,221.40
2022-08-16T09:27:57.719Z,232.60
2022-08-16T09:29:16.242Z,215.60
2022-08-16T09:29:47.138Z,226.90
2022-08-16T09:30:47.126Z,233.90
2022-08-16T09:31:46.130Z,227.80
2022-08-16T09:32:46.935Z,229.80
2022-08-16T09:33:46.088Z,236.20
2022-08-16T09:34:47.069Z,219.10
2022-08-16T09:35:46.070Z,213.80
2022-08-16T09:36:47.128Z,224.00
2022-08-16T09:37:46.039Z,228.10
2022-08-16T09:38:47.032Z,219.10
2022-08-16T09:39:50.125Z,229.70
2022-08-16T09:40:46.088Z,226.80
2022-08-16T09:41:53.736Z,216.10
2022-08-16T09:42:56.541Z,212.90
2022-08-16T09:43:59.862Z,222.60
2022-08-16T09:45:10.747Z,220.70
2022-08-16T09:45:46.943Z,216.60
2022-08-16T09:46:49.419Z,208.90
2022-08-16T09:47:56.488Z,239.70
2022-08-16T09:48:51.080Z,207.10
2022-08-16T09:49:45.899Z,207.50
2022-08-16T09:50:46.874Z,200.70
2022-08-16T09:51:45.869Z,193.10
2022-08-16T09:52:47.918Z,208.60
2022-08-16T09:53:45.842Z,210.30
2022-08-16T09:54:46.929Z,224.10
2022-08-16T09:55:45.818Z,196.10
2022-08-16T09:56:52.413Z,200.00
2022-08-16T09:57:53.019Z,197.70
2022-08-16T09:59:04.893Z,206.80
2022-08-16T09:59:49.303Z,221.60
2022-08-16T10:00:46.827Z,214.60
2022-08-16T10:01:45.989Z,211.80
2022-08-16T10:02:48.262Z,217.60
2022-08-16T10:04:01.189Z,221.00
2022-08-16T10:04:54.802Z,226.90
2022-08-16T10:05:46.687Z,233.50
2022-08-16T10:06:46.307Z,227.40
2022-08-16T10:07:45.665Z,270.60
2022-08-16T10:09:04.378Z,260.70
2022-08-16T10:09:55.714Z,278.40
2022-08-16T10:10:46.617Z,285.80
2022-08-16T10:11:49.961Z,278.10
2022-08-16T10:12:46.627Z,277.80
2022-08-16T10:13:46.607Z,272.20
2022-08-16T10:14:45.952Z,267.40
2022-08-16T10:15:47.965Z,276.60
2022-08-16T10:16:48.768Z,272.30
2022-08-16T10:18:00.051Z,261.10
2022-08-16T10:19:02.211Z,269.40
2022-08-16T10:19:46.519Z,275.30
2022-08-16T10:20:45.498Z,273.50
2022-08-16T10:21:45.501Z,277.20
2022-08-16T10:22:46.481Z,271.30
2022-08-16T10:23:45.476Z,278.10
2022-08-16T10:24:56.113Z,281.40
2022-08-16T10:27:19.833Z,286.00
2022-08-16T10:27:20.421Z,291.30
2022-08-16T10:27:50.676Z,286.00
2022-08-16T10:28:46.402Z,288.20
2022-08-16T10:29:59.910Z,301.00
2022-08-16T10:30:46.372Z,303.20
2022-08-16T10:31:53.892Z,308.90
2022-08-16T10:32:46.355Z,291.70
2022-08-16T10:33:45.345Z,290.30
2022-08-16T10:34:45.343Z,310.40
2022-08-16T10:35:46.802Z,305.80
2022-08-16T10:36:45.307Z,315.20
2022-08-16T10:37:45.303Z,300.60
2022-08-16T10:38:45.295Z,282.60
2022-08-16T10:39:45.335Z,270.30
2022-08-16T10:40:45.759Z,268.70
2022-08-16T10:41:45.296Z,266.00
2022-08-16T10:42:45.243Z,254.90
2022-08-16T10:43:45.225Z,241.90
2022-08-16T10:44:53.397Z,243.70
2022-08-16T10:45:46.216Z,243.10
2022-08-16T10:46:46.188Z,229.10
2022-08-16T10:47:45.178Z,235.00
2022-08-16T10:48:47.175Z,250.60
2022-08-16T10:49:45.159Z,248.90
2022-08-16T10:50:45.148Z,251.40
2022-08-16T10:52:01.175Z,252.90
2022-08-16T10:52:46.132Z,258.30
2022-08-16T10:53:45.130Z,256.20
2022-08-16T10:55:40.233Z,275.40
2022-08-16T10:55:46.285Z,245.40
2022-08-16T10:56:55.337Z,236.30
2022-08-16T10:57:46.113Z,264.30
2022-08-16T10:58:45.050Z,221.70
2022-08-16T10:59:57.644Z,234.40
2022-08-16T11:00:46.502Z,232.20
2022-08-16T11:02:21.696Z,211.80
2022-08-16T11:02:59.579Z,230.80
2022-08-16T11:03:46.439Z,245.20
2022-08-16T11:06:03.281Z,255.90
2022-08-16T11:07:06.549Z,250.70
2022-08-16T11:07:52.622Z,246.50
2022-08-16T11:08:45.931Z,227.50
2022-08-16T11:09:44.931Z,229.50
2022-08-16T11:11:06.797Z,237.90
2022-08-16T11:12:45.900Z,194.80
2022-08-16T11:14:06.076Z,176.10
2022-08-16T11:15:52.034Z,209.70
2022-08-16T11:17:02.123Z,207.50
2022-08-16T11:17:46.127Z,205.70
2022-08-16T11:18:54.743Z,186.20
2022-08-16T11:20:41.567Z,184.40
2022-08-16T11:20:49.185Z,178.40
2022-08-16T11:22:48.220Z,190.60
2022-08-16T11:23:57.503Z,203.00
2022-08-16T11:24:46.073Z,184.80
2022-08-16T11:26:45.987Z,182.10
2022-08-16T11:27:45.750Z,196.70
2022-08-16T11:29:45.699Z,184.50
2022-08-16T11:30:44.679Z,208.40
2022-08-16T11:31:45.944Z,165.60
2022-08-16T11:32:45.650Z,173.50
2022-08-16T11:33:52.612Z,190.30
2022-08-16T11:35:09.762Z,175.30
2022-08-16T11:36:22.437Z,176.90
2022-08-16T11:36:53.961Z,178.50
2022-08-16T11:38:52.062Z,173.10
2022-08-16T11:39:45.638Z,173.30
2022-08-16T11:40:44.749Z,180.50
2022-08-16T11:41:44.554Z,164.80
2022-08-16T11:42:45.535Z,166.00
2022-08-16T11:43:44.536Z,149.20
2022-08-16T11:44:56.206Z,164.20
2022-08-16T11:45:53.641Z,158.10
2022-08-16T11:46:46.611Z,158.50
2022-08-16T11:47:44.526Z,154.90
2022-08-16T11:48:44.474Z,152.20
2022-08-16T11:49:44.548Z,129.60
2022-08-16T11:50:44.455Z,150.10
2022-08-16T11:51:44.512Z,144.50
2022-08-16T11:52:46.521Z,152.60
2022-08-16T11:53:44.426Z,148.10
2022-08-16T11:54:44.397Z,148.70
2022-08-16T11:55:44.428Z,155.40
2022-08-16T11:56:56.493Z,149.90
2022-08-16T11:57:45.410Z,147.30
2022-08-16T11:58:44.359Z,146.40
2022-08-16T11:59:45.347Z,136.30
2022-08-16T12:00:51.897Z,138.60
2022-08-16T12:01:59.069Z,136.00
2022-08-16T12:02:45.865Z,133.90
2022-08-16T12:03:44.367Z,144.10
2022-08-16T12:04:44.300Z,143.70
2022-08-16T12:05:44.280Z,146.50
2022-08-16T12:06:44.270Z,137.20
2022-08-16T12:07:44.307Z,137.20
2022-08-16T12:08:44.311Z,126.70
2022-08-16T12:09:44.241Z,122.60
2022-08-16T12:10:44.235Z,125.70
2022-08-16T12:11:44.224Z,129.50
2022-08-16T12:12:44.202Z,127.20
2022-08-16T12:13:44.192Z,118.90
2022-08-16T12:14:44.183Z,125.80
2022-08-16T12:15:44.184Z,113.20
2022-08-16T12:16:48.734Z,111.80
2022-08-16T12:17:45.157Z,113.10
2022-08-16T12:18:44.180Z,116.20
2022-08-16T12:19:44.267Z,107.40
2022-08-16T12:20:44.116Z,107.20
2022-08-16T12:21:59.325Z,103.10
2022-08-16T12:22:45.142Z,108.10
2022-08-16T12:23:44.083Z,107.80
2022-08-16T12:24:44.075Z,100.60
2022-08-16T12:25:44.056Z,105.20
2022-08-16T12:26:44.051Z,99.20
2022-08-16T12:27:44.038Z,99.00
2022-08-16T12:28:54.475Z,92.00
2022-08-16T12:29:45.108Z,97.20
2022-08-16T12:30:44.008Z,90.10
2022-08-16T12:32:00.457Z,85.70
2022-08-16T12:32:44.979Z,96.40
2022-08-16T12:33:45.190Z,103.90
2022-08-16T12:34:48.022Z,106.90